sensor_id;sensor_type;location;lat;lon;timestamp;pressure;altitude;pressure_sealevel;temperature;humidity
7109;BME280;29079;41.930;25.558;2022-08-18T00:01:48;99099.69;;;25.72;43.08
7109;BME280;29079;41.930;25.558;2022-08-18T00:04:21;99101.31;;;25.73;42.90
7109;BME280;29079;41.930;25.558;2022-08-18T00:07:13;99095.78;;;25.68;42.89
7109;BME280;29079;41.930;25.558;2022-08-18T00:09:43;99092.59;;;25.59;43.33
7109;BME280;29079;41.930;25.558;2022-08-18T00:12:19;99098.88;;;25.60;43.33
7109;BME280;29079;41.930;25.558;2022-08-18T00:14:50;99101.50;;;25.54;43.34
7109;BME280;29079;41.930;25.558;2022-08-18T00:17:21;99096.06;;;25.54;43.21
7109;BME280;29079;41.930;25.558;2022-08-18T00:19:53;99100.69;;;25.54;43.43
7109;BME280;29079;41.930;25.558;2022-08-18T00:22:22;99100.38;;;25.50;43.58
7109;BME280;29079;41.930;25.558;2022-08-18T00:24:54;99094.06;;;25.50;43.60
7109;BME280;29079;41.930;25.558;2022-08-18T00:27:28;99096.91;;;25.55;43.52
7109;BME280;29079;41.930;25.558;2022-08-18T00:30:00;99099.94;;;25.42;43.65
7109;BME280;29079;41.930;25.558;2022-08-18T00:32:36;99039.78;;;24.96;43.91
7109;BME280;29079;41.930;25.558;2022-08-18T00:35:13;99111.09;;;25.40;43.76
7109;BME280;29079;41.930;25.558;2022-08-18T00:37:44;99106.72;;;25.39;43.88
7109;BME280;29079;41.930;25.558;2022-08-18T00:40:17;99108.38;;;25.28;44.09
7109;BME280;29079;41.930;25.558;2022-08-18T00:42:50;99109.81;;;25.31;43.92
7109;BME280;29079;41.930;25.558;2022-08-18T00:45:24;99109.56;;;25.32;43.93
7109;BME280;29079;41.930;25.558;2022-08-18T00:47:55;99114.44;;;25.30;43.97
7109;BME280;29079;41.930;25.558;2022-08-18T00:50:34;99109.25;;;25.17;44.27
7109;BME280;29079;41.930;25.558;2022-08-18T00:53:12;99098.34;;;25.05;44.60
7109;BME280;29079;41.930;25.558;2022-08-18T00:55:43;99107.63;;;25.04;44.85
7109;BME280;29079;41.930;25.558;2022-08-18T00:58:25;99108.56;;;24.98;45.18
7109;BME280;29079;41.930;25.558;2022-08-18T01:00:58;99115.13;;;24.97;45.09
7109;BME280;29079;41.930;25.558;2022-08-18T01:03:31;99115.13;;;24.97;45.17
7109;BME280;29079;41.930;25.558;2022-08-18T01:06:08;99110.59;;;25.02;45.03
7109;BME280;29079;41.930;25.558;2022-08-18T01:08:40;99109.88;;;25.07;44.89
7109;BME280;29079;41.930;25.558;2022-08-18T01:11:11;99107.28;;;25.00;45.02
7109;BME280;29079;41.930;25.558;2022-08-18T01:13:43;99110.38;;;25.04;45.21
7109;BME280;29079;41.930;25.558;2022-08-18T01:16:16;99111.78;;;24.95;45.00
7109;BME280;29079;41.930;25.558;2022-08-18T01:19:05;99115.16;;;24.85;45.14
7109;BME280;29079;41.930;25.558;2022-08-18T01:22:01;99120.38;;;24.75;45.46
7109;BME280;29079;41.930;25.558;2022-08-18T01:24:35;99113.88;;;24.64;45.68
7109;BME280;29079;41.930;25.558;2022-08-18T01:27:26;99111.69;;;24.54;45.89
7109;BME280;29079;41.930;25.558;2022-08-18T01:30:03;99118.00;;;24.55;46.20
7109;BME280;29079;41.930;25.558;2022-08-18T01:32:36;99111.44;;;24.56;45.68
7109;BME280;29079;41.930;25.558;2022-08-18T01:35:07;99112.78;;;24.53;45.90
7109;BME280;29079;41.930;25.558;2022-08-18T01:37:38;99107.09;;;24.55;45.83
7109;BME280;29079;41.930;25.558;2022-08-18T01:40:13;99109.59;;;24.44;46.24
7109;BME280;29079;41.930;25.558;2022-08-18T01:43:03;99107.56;;;24.28;46.75
7109;BME280;29079;41.930;25.558;2022-08-18T01:45:33;99107.91;;;24.31;46.88
7109;BME280;29079;41.930;25.558;2022-08-18T01:48:03;99102.47;;;24.20;47.01
7109;BME280;29079;41.930;25.558;2022-08-18T01:50:33;99099.59;;;24.14;47.04
7109;BME280;29079;41.930;25.558;2022-08-18T01:53:04;99101.28;;;24.15;47.22
7109;BME280;29079;41.930;25.558;2022-08-18T01:55:38;99107.06;;;24.19;47.04
7109;BME280;29079;41.930;25.558;2022-08-18T01:58:11;99100.19;;;24.16;47.34
7109;BME280;29079;41.930;25.558;2022-08-18T02:00:41;99102.91;;;24.16;47.17
7109;BME280;29079;41.930;25.558;2022-08-18T02:03:13;99098.31;;;24.17;47.46
7109;BME280;29079;41.930;25.558;2022-08-18T02:05:46;99093.44;;;24.19;47.58
7109;BME280;29079;41.930;25.558;2022-08-18T02:08:18;99091.66;;;24.13;47.72
7109;BME280;29079;41.930;25.558;2022-08-18T02:10:49;99103.13;;;24.03;48.02
7109;BME280;29079;41.930;25.558;2022-08-18T02:13:19;99110.75;;;24.01;48.19
7109;BME280;29079;41.930;25.558;2022-08-18T02:15:50;99111.78;;;24.00;48.04
7109;BME280;29079;41.930;25.558;2022-08-18T02:18:22;99111.69;;;23.95;48.04
7109;BME280;29079;41.930;25.558;2022-08-18T02:21:13;99115.69;;;23.92;48.15
7109;BME280;29079;41.930;25.558;2022-08-18T02:23:47;99117.03;;;23.83;48.07
7109;BME280;29079;41.930;25.558;2022-08-18T02:26:22;99110.59;;;23.65;48.44
7109;BME280;29079;41.930;25.558;2022-08-18T02:28:53;99108.25;;;23.69;48.37
7109;BME280;29079;41.930;25.558;2022-08-18T02:31:24;99113.25;;;23.72;48.74
7109;BME280;29079;41.930;25.558;2022-08-18T02:33:54;99108.72;;;23.66;48.47
7109;BME280;29079;41.930;25.558;2022-08-18T02:36:25;99114.66;;;23.63;48.65
7109;BME280;29079;41.930;25.558;2022-08-18T02:38:56;99106.09;;;23.59;48.63
7109;BME280;29079;41.930;25.558;2022-08-18T02:41:29;99116.06;;;23.65;48.55
7109;BME280;29079;41.930;25.558;2022-08-18T02:43:59;99117.28;;;23.81;48.09
7109;BME280;29079;41.930;25.558;2022-08-18T02:46:30;99119.19;;;23.81;48.15
7109;BME280;29079;41.930;25.558;2022-08-18T02:49:00;99119.41;;;23.79;48.26
7109;BME280;29079;41.930;25.558;2022-08-18T02:51:30;99114.28;;;23.71;48.38
7109;BME280;29079;41.930;25.558;2022-08-18T02:54:01;99102.09;;;23.62;48.52
7109;BME280;29079;41.930;25.558;2022-08-18T02:56:37;99109.63;;;23.60;48.68
7109;BME280;29079;41.930;25.558;2022-08-18T02:59:12;99116.34;;;23.45;49.04
7109;BME280;29079;41.930;25.558;2022-08-18T03:01:45;99119.09;;;23.45;48.96
7109;BME280;29079;41.930;25.558;2022-08-18T03:04:18;99124.41;;;23.52;49.31
7109;BME280;29079;41.930;25.558;2022-08-18T03:06:55;99119.72;;;23.59;49.36
7109;BME280;29079;41.930;25.558;2022-08-18T03:09:25;99113.91;;;23.56;49.63
7109;BME280;29079;41.930;25.558;2022-08-18T03:11:57;99121.34;;;23.49;50.31
7109;BME280;29079;41.930;25.558;2022-08-18T03:14:28;99120.44;;;23.67;49.61
7109;BME280;29079;41.930;25.558;2022-08-18T03:16:58;99120.53;;;23.60;49.62
7109;BME280;29079;41.930;25.558;2022-08-18T03:19:29;99120.25;;;23.50;50.20
7109;BME280;29079;41.930;25.558;2022-08-18T03:22:02;99126.44;;;23.57;49.94
7109;BME280;29079;41.930;25.558;2022-08-18T03:24:53;99127.66;;;23.61;49.78
7109;BME280;29079;41.930;25.558;2022-08-18T03:27:25;99122.59;;;23.64;49.45
7109;BME280;29079;41.930;25.558;2022-08-18T03:29:55;99128.84;;;23.65;49.46
7109;BME280;29079;41.930;25.558;2022-08-18T03:32:26;99124.19;;;23.54;49.76
7109;BME280;29079;41.930;25.558;2022-08-18T03:34:57;99123.06;;;23.61;49.82
7109;BME280;29079;41.930;25.558;2022-08-18T03:37:27;99137.59;;;23.67;49.69
7109;BME280;29079;41.930;25.558;2022-08-18T03:39:58;99098.03;;;23.53;49.52
7109;BME280;29079;41.930;25.558;2022-08-18T03:42:30;99126.88;;;23.72;49.47
7109;BME280;29079;41.930;25.558;2022-08-18T03:45:00;99125.63;;;23.56;50.15
7109;BME280;29079;41.930;25.558;2022-08-18T03:47:45;99121.97;;;23.62;50.15
7109;BME280;29079;41.930;25.558;2022-08-18T03:50:15;99124.59;;;23.69;49.95
7109;BME280;29079;41.930;25.558;2022-08-18T03:52:46;99133.97;;;23.73;50.05
7109;BME280;29079;41.930;25.558;2022-08-18T03:55:16;99130.78;;;23.76;49.81
7109;BME280;29079;41.930;25.558;2022-08-18T03:57:48;99127.75;;;23.85;49.66
7109;BME280;29079;41.930;25.558;2022-08-18T04:00:20;99131.34;;;23.97;49.39
7109;BME280;29079;41.930;25.558;2022-08-18T04:02:51;99129.66;;;23.96;49.28
7109;BME280;29079;41.930;25.558;2022-08-18T04:05:21;99136.19;;;23.95;49.38
7109;BME280;29079;41.930;25.558;2022-08-18T04:07:51;99136.06;;;23.90;49.38
7109;BME280;29079;41.930;25.558;2022-08-18T04:10:21;99135.72;;;23.86;49.98
7109;BME280;29079;41.930;25.558;2022-08-18T04:12:52;99148.25;;;23.87;50.10
7109;BME280;29079;41.930;25.558;2022-08-18T04:15:23;99144.00;;;23.91;49.85
7109;BME280;29079;41.930;25.558;2022-08-18T04:17:53;99145.53;;;23.99;49.75
7109;BME280;29079;41.930;25.558;2022-08-18T04:20:31;99153.22;;;23.90;50.30
7109;BME280;29079;41.930;25.558;2022-08-18T04:23:01;99151.38;;;24.03;50.13
7109;BME280;29079;41.930;25.558;2022-08-18T04:25:31;99161.34;;;24.09;49.80
7109;BME280;29079;41.930;25.558;2022-08-18T04:28:03;99157.56;;;24.10;49.73
7109;BME280;29079;41.930;25.558;2022-08-18T04:30:33;99155.19;;;24.13;49.57
7109;BME280;29079;41.930;25.558;2022-08-18T04:33:02;99162.31;;;24.26;49.18
7109;BME280;29079;41.930;25.558;2022-08-18T04:35:33;99157.25;;;24.30;49.24
7109;BME280;29079;41.930;25.558;2022-08-18T04:38:03;99154.63;;;24.35;48.83
7109;BME280;29079;41.930;25.558;2022-08-18T04:40:35;99157.00;;;24.43;48.62
7109;BME280;29079;41.930;25.558;2022-08-18T04:43:07;99152.75;;;24.47;48.57
7109;BME280;29079;41.930;25.558;2022-08-18T04:45:44;99150.59;;;24.49;48.57
7109;BME280;29079;41.930;25.558;2022-08-18T04:48:14;99145.28;;;24.55;48.71
7109;BME280;29079;41.930;25.558;2022-08-18T04:50:45;99156.53;;;24.58;48.36
7109;BME280;29079;41.930;25.558;2022-08-18T04:53:15;99155.84;;;24.63;48.38
7109;BME280;29079;41.930;25.558;2022-08-18T04:56:02;99155.59;;;24.64;48.58
7109;BME280;29079;41.930;25.558;2022-08-18T04:58:34;99158.13;;;24.66;48.71
7109;BME280;29079;41.930;25.558;2022-08-18T05:01:05;99162.94;;;24.76;48.71
7109;BME280;29079;41.930;25.558;2022-08-18T05:03:37;99166.16;;;24.84;48.62
7109;BME280;29079;41.930;25.558;2022-08-18T05:06:18;99164.25;;;24.97;47.88
7109;BME280;29079;41.930;25.558;2022-08-18T05:08:48;99156.53;;;25.06;47.90
7109;BME280;29079;41.930;25.558;2022-08-18T05:11:19;99165.16;;;25.14;48.06
7109;BME280;29079;41.930;25.558;2022-08-18T05:13:51;99160.50;;;25.27;47.92
7109;BME280;29079;41.930;25.558;2022-08-18T05:16:22;99164.63;;;25.41;47.78
7109;BME280;29079;41.930;25.558;2022-08-18T05:18:55;99161.63;;;25.54;47.38
7109;BME280;29079;41.930;25.558;2022-08-18T05:21:31;99163.47;;;25.66;48.31
7109;BME280;29079;41.930;25.558;2022-08-18T05:24:05;99167.97;;;25.72;48.10
7109;BME280;29079;41.930;25.558;2022-08-18T05:26:36;99160.28;;;25.86;49.62
7109;BME280;29079;41.930;25.558;2022-08-18T05:29:09;99161.06;;;25.98;47.12
7109;BME280;29079;41.930;25.558;2022-08-18T05:31:47;99168.13;;;26.11;49.08
7109;BME280;29079;41.930;25.558;2022-08-18T05:34:19;99160.28;;;26.15;46.21
7109;BME280;29079;41.930;25.558;2022-08-18T05:37:00;99172.41;;;26.36;45.50
7109;BME280;29079;41.930;25.558;2022-08-18T05:39:38;99169.22;;;26.44;45.57
7109;BME280;29079;41.930;25.558;2022-08-18T05:42:12;99169.97;;;26.56;44.45
7109;BME280;29079;41.930;25.558;2022-08-18T05:44:49;99172.53;;;26.63;44.79
7109;BME280;29079;41.930;25.558;2022-08-18T05:47:23;99133.75;;;26.49;44.68
7109;BME280;29079;41.930;25.558;2022-08-18T05:49:55;99176.34;;;26.79;44.40
7109;BME280;29079;41.930;25.558;2022-08-18T05:52:29;99166.38;;;26.90;44.36
7109;BME280;29079;41.930;25.558;2022-08-18T05:55:03;99179.16;;;27.01;44.20
7109;BME280;29079;41.930;25.558;2022-08-18T05:57:56;99163.31;;;27.08;43.53
7109;BME280;29079;41.930;25.558;2022-08-18T06:00:31;99175.63;;;27.28;42.67
7109;BME280;29079;41.930;25.558;2022-08-18T06:03:05;99174.88;;;27.33;43.12
7109;BME280;29079;41.930;25.558;2022-08-18T06:05:42;99179.09;;;27.40;42.42
7109;BME280;29079;41.930;25.558;2022-08-18T06:08:14;99181.13;;;27.50;42.88
7109;BME280;29079;41.930;25.558;2022-08-18T06:10:48;99174.25;;;27.48;41.73
7109;BME280;29079;41.930;25.558;2022-08-18T06:13:20;99183.53;;;27.69;41.79
7109;BME280;29079;41.930;25.558;2022-08-18T06:15:57;99174.59;;;27.78;41.52
7109;BME280;29079;41.930;25.558;2022-08-18T06:18:42;99186.75;;;27.88;40.87
7109;BME280;29079;41.930;25.558;2022-08-18T06:21:33;99182.03;;;27.83;41.29
7109;BME280;29079;41.930;25.558;2022-08-18T06:24:15;99178.38;;;28.00;40.67
7109;BME280;29079;41.930;25.558;2022-08-18T06:26:55;99169.09;;;28.01;40.41
7109;BME280;29079;41.930;25.558;2022-08-18T06:29:39;99187.22;;;28.07;40.68
7109;BME280;29079;41.930;25.558;2022-08-18T06:32:24;99192.25;;;28.15;40.33
7109;BME280;29079;41.930;25.558;2022-08-18T06:35:08;99194.81;;;28.27;40.95
7109;BME280;29079;41.930;25.558;2022-08-18T06:40:45;99190.75;;;28.35;40.63
7109;BME280;29079;41.930;25.558;2022-08-18T06:43:15;99197.97;;;28.41;40.41
7109;BME280;29079;41.930;25.558;2022-08-18T06:45:48;99168.19;;;28.22;40.49
7109;BME280;29079;41.930;25.558;2022-08-18T06:48:26;99200.53;;;28.53;40.02
7109;BME280;29079;41.930;25.558;2022-08-18T06:51:02;99198.97;;;28.62;40.20
7109;BME280;29079;41.930;25.558;2022-08-18T06:53:55;99195.16;;;28.68;40.36
7109;BME280;29079;41.930;25.558;2022-08-18T06:56:31;99194.13;;;28.74;40.17
7109;BME280;29079;41.930;25.558;2022-08-18T06:59:21;99196.66;;;28.86;40.21
7109;BME280;29079;41.930;25.558;2022-08-18T07:01:53;99186.50;;;28.87;39.56
7109;BME280;29079;41.930;25.558;2022-08-18T07:04:42;99188.75;;;28.95;39.25
7109;BME280;29079;41.930;25.558;2022-08-18T07:07:29;99178.63;;;29.00;38.83
7109;BME280;29079;41.930;25.558;2022-08-18T07:10:31;99185.25;;;29.10;39.35
7109;BME280;29079;41.930;25.558;2022-08-18T07:13:11;99191.59;;;29.15;39.05
7109;BME280;29079;41.930;25.558;2022-08-18T07:15:44;99191.41;;;29.22;38.60
7109;BME280;29079;41.930;25.558;2022-08-18T07:18:24;99191.69;;;29.26;38.63
7109;BME280;29079;41.930;25.558;2022-08-18T07:20:57;99161.94;;;29.17;38.43
7109;BME280;29079;41.930;25.558;2022-08-18T07:23:31;99174.44;;;29.41;37.99
7109;BME280;29079;41.930;25.558;2022-08-18T07:26:09;99169.22;;;29.44;38.23
7109;BME280;29079;41.930;25.558;2022-08-18T07:28:45;99176.16;;;29.57;37.70
7109;BME280;29079;41.930;25.558;2022-08-18T07:31:34;99175.59;;;29.65;37.70
7109;BME280;29079;41.930;25.558;2022-08-18T07:34:08;99181.94;;;29.66;37.60
7109;BME280;29079;41.930;25.558;2022-08-18T07:36:46;99177.00;;;29.68;37.93
7109;BME280;29079;41.930;25.558;2022-08-18T07:39:21;99175.63;;;29.76;38.04
7109;BME280;29079;41.930;25.558;2022-08-18T07:42:01;99176.75;;;29.75;37.52
7109;BME280;29079;41.930;25.558;2022-08-18T07:44:42;99175.97;;;29.90;37.41
7109;BME280;29079;41.930;25.558;2022-08-18T07:47:17;99166.06;;;29.89;36.79
7109;BME280;29079;41.930;25.558;2022-08-18T07:49:48;99180.38;;;29.96;36.73
7109;BME280;29079;41.930;25.558;2022-08-18T07:52:44;99163.31;;;29.99;36.64
7109;BME280;29079;41.930;25.558;2022-08-18T07:55:29;99166.91;;;30.04;36.34
7109;BME280;29079;41.930;25.558;2022-08-18T07:58:09;99160.03;;;30.12;36.83
7109;BME280;29079;41.930;25.558;2022-08-18T08:00:48;99148.75;;;30.09;36.65
7109;BME280;29079;41.930;25.558;2022-08-18T08:03:37;99163.59;;;30.23;36.44
7109;BME280;29079;41.930;25.558;2022-08-18T08:06:17;99156.19;;;30.29;36.42
7109;BME280;29079;41.930;25.558;2022-08-18T08:08:56;99155.91;;;30.30;36.21
7109;BME280;29079;41.930;25.558;2022-08-18T08:11:40;99161.44;;;30.46;35.55
7109;BME280;29079;41.930;25.558;2022-08-18T08:14:23;99155.09;;;30.45;35.85
7109;BME280;29079;41.930;25.558;2022-08-18T08:17:04;99154.84;;;30.42;36.21
7109;BME280;29079;41.930;25.558;2022-08-18T08:19:47;99162.25;;;30.51;35.26
7109;BME280;29079;41.930;25.558;2022-08-18T08:22:34;99164.19;;;30.51;36.32
7109;BME280;29079;41.930;25.558;2022-08-18T08:25:14;99161.16;;;30.42;35.22
7109;BME280;29079;41.930;25.558;2022-08-18T08:28:13;99120.66;;;30.32;35.13
7109;BME280;29079;41.930;25.558;2022-08-18T08:30:52;99160.84;;;30.64;35.13
7109;BME280;29079;41.930;25.558;2022-08-18T08:33:49;99155.09;;;30.61;35.96
7109;BME280;29079;41.930;25.558;2022-08-18T08:36:24;99151.78;;;30.69;34.27
7109;BME280;29079;41.930;25.558;2022-08-18T08:38:58;99153.09;;;30.82;34.54
7109;BME280;29079;41.930;25.558;2022-08-18T08:41:34;99161.09;;;30.73;34.75
7109;BME280;29079;41.930;25.558;2022-08-18T08:44:09;99149.28;;;30.72;33.40
7109;BME280;29079;41.930;25.558;2022-08-18T08:46:44;99156.38;;;30.94;34.36
7109;BME280;29079;41.930;25.558;2022-08-18T08:49:26;99142.38;;;30.70;34.87
7109;BME280;29079;41.930;25.558;2022-08-18T08:52:01;99155.84;;;30.87;33.20
7109;BME280;29079;41.930;25.558;2022-08-18T08:54:39;99146.50;;;30.88;33.10
7109;BME280;29079;41.930;25.558;2022-08-18T08:57:15;99142.59;;;30.89;33.13
7109;BME280;29079;41.930;25.558;2022-08-18T08:59:47;99131.31;;;30.96;33.14
7109;BME280;29079;41.930;25.558;2022-08-18T09:02:33;99137.66;;;31.01;34.84
7109;BME280;29079;41.930;25.558;2022-08-18T09:05:19;99135.19;;;31.00;33.47
7109;BME280;29079;41.930;25.558;2022-08-18T09:08:22;99127.41;;;31.12;32.70
7109;BME280;29079;41.930;25.558;2022-08-18T09:11:17;99131.53;;;31.20;33.07
7109;BME280;29079;41.930;25.558;2022-08-18T09:14:06;99129.00;;;31.29;33.80
7109;BME280;29079;41.930;25.558;2022-08-18T09:16:53;99132.63;;;31.19;32.67
7109;BME280;29079;41.930;25.558;2022-08-18T09:19:39;99129.06;;;31.18;33.53
7109;BME280;29079;41.930;25.558;2022-08-18T09:22:19;99112.00;;;31.11;33.49
7109;BME280;29079;41.930;25.558;2022-08-18T09:24:55;99107.19;;;31.32;32.31
7109;BME280;29079;41.930;25.558;2022-08-18T09:27:34;99102.75;;;31.36;32.58
7109;BME280;29079;41.930;25.558;2022-08-18T09:30:40;99112.03;;;31.56;31.69
7109;BME280;29079;41.930;25.558;2022-08-18T09:33:19;99109.66;;;31.34;32.73
7109;BME280;29079;41.930;25.558;2022-08-18T09:36:06;99106.63;;;31.35;31.24
7109;BME280;29079;41.930;25.558;2022-08-18T09:38:47;99103.06;;;31.30;33.23
7109;BME280;29079;41.930;25.558;2022-08-18T09:41:39;99105.22;;;31.43;31.58
7109;BME280;29079;41.930;25.558;2022-08-18T09:44:58;99108.19;;;31.57;31.25
7109;BME280;29079;41.930;25.558;2022-08-18T09:47:58;99099.00;;;31.72;29.78
7109;BME280;29079;41.930;25.558;2022-08-18T09:50:36;99108.22;;;31.91;30.11
7109;BME280;29079;41.930;25.558;2022-08-18T09:53:33;99085.06;;;31.48;32.36
7109;BME280;29079;41.930;25.558;2022-08-18T09:56:05;99093.53;;;31.62;31.80
7109;BME280;29079;41.930;25.558;2022-08-18T09:58:56;99095.97;;;31.68;30.02
7109;BME280;29079;41.930;25.558;2022-08-18T10:01:38;99083.50;;;31.76;29.72
7109;BME280;29079;41.930;25.558;2022-08-18T10:04:32;99091.84;;;31.71;29.91
7109;BME280;29079;41.930;25.558;2022-08-18T10:07:30;99092.63;;;31.76;30.57
7109;BME280;29079;41.930;25.558;2022-08-18T10:10:18;99099.00;;;31.72;31.23
7109;BME280;29079;41.930;25.558;2022-08-18T10:13:17;99090.16;;;31.75;31.11
7109;BME280;29079;41.930;25.558;2022-08-18T10:16:05;99090.44;;;31.73;31.43
7109;BME280;29079;41.930;25.558;2022-08-18T10:18:48;99084.56;;;31.80;30.57
7109;BME280;29079;41.930;25.558;2022-08-18T10:21:25;99083.38;;;31.91;31.05
7109;BME280;29079;41.930;25.558;2022-08-18T10:24:13;99096.31;;;31.96;30.64
7109;BME280;29079;41.930;25.558;2022-08-18T10:27:07;99097.28;;;32.16;30.42
7109;BME280;29079;41.930;25.558;2022-08-18T10:29:55;99086.03;;;31.67;33.37
7109;BME280;29079;41.930;25.558;2022-08-18T10:32:44;99091.47;;;31.77;31.87
7109;BME280;29079;41.930;25.558;2022-08-18T10:35:53;99086.25;;;32.16;29.70
7109;BME280;29079;41.930;25.558;2022-08-18T10:38:43;99079.31;;;32.18;30.67
7109;BME280;29079;41.930;25.558;2022-08-18T10:41:21;99093.31;;;32.27;30.32
7109;BME280;29079;41.930;25.558;2022-08-18T10:43:52;99075.31;;;32.35;29.94
7109;BME280;29079;41.930;25.558;2022-08-18T10:46:27;99080.59;;;32.55;29.04
7109;BME280;29079;41.930;25.558;2022-08-18T10:49:23;99070.00;;;32.38;29.88
7109;BME280;29079;41.930;25.558;2022-08-18T10:52:30;99083.03;;;32.33;31.16
7109;BME280;29079;41.930;25.558;2022-08-18T10:55:36;99077.50;;;32.33;31.10
7109;BME280;29079;41.930;25.558;2022-08-18T10:58:23;99080.97;;;32.19;31.87
7109;BME280;29079;41.930;25.558;2022-08-18T11:01:06;99075.69;;;31.88;32.50
7109;BME280;29079;41.930;25.558;2022-08-18T11:03:50;99050.09;;;31.83;31.34
7109;BME280;29079;41.930;25.558;2022-08-18T11:06:27;99063.09;;;31.77;32.29
7109;BME280;29079;41.930;25.558;2022-08-18T11:08:59;99072.47;;;32.16;30.34
7109;BME280;29079;41.930;25.558;2022-08-18T11:11:34;99057.84;;;32.39;29.35
7109;BME280;29079;41.930;25.558;2022-08-18T11:14:19;99045.75;;;32.35;30.37
7109;BME280;29079;41.930;25.558;2022-08-18T11:16:57;99061.50;;;32.59;29.81
7109;BME280;29079;41.930;25.558;2022-08-18T11:19:35;99054.66;;;32.80;29.72
7109;BME280;29079;41.930;25.558;2022-08-18T11:22:20;99031.53;;;32.47;29.64
7109;BME280;29079;41.930;25.558;2022-08-18T11:25:01;99045.41;;;32.66;29.52
7109;BME280;29079;41.930;25.558;2022-08-18T11:27:34;99045.84;;;32.78;29.42
7109;BME280;29079;41.930;25.558;2022-08-18T11:30:05;99039.28;;;32.93;29.68
7109;BME280;29079;41.930;25.558;2022-08-18T11:32:40;99050.63;;;32.92;29.79
7109;BME280;29079;41.930;25.558;2022-08-18T11:35:25;99043.72;;;32.70;29.84
7109;BME280;29079;41.930;25.558;2022-08-18T11:38:00;99048.72;;;32.68;29.62
7109;BME280;29079;41.930;25.558;2022-08-18T11:40:35;99036.34;;;32.60;30.04
7109;BME280;29079;41.930;25.558;2022-08-18T11:43:29;99029.56;;;32.28;31.15
7109;BME280;29079;41.930;25.558;2022-08-18T11:46:23;99024.94;;;32.43;30.00
7109;BME280;29079;41.930;25.558;2022-08-18T11:49:17;99019.69;;;32.46;29.63
7109;BME280;29079;41.930;25.558;2022-08-18T11:51:57;99012.81;;;32.68;29.89
7109;BME280;29079;41.930;25.558;2022-08-18T11:54:37;99017.66;;;32.76;29.78
7109;BME280;29079;41.930;25.558;2022-08-18T11:57:50;99009.69;;;32.51;30.56
7109;BME280;29079;41.930;25.558;2022-08-18T12:00:58;98997.16;;;32.34;30.17
7109;BME280;29079;41.930;25.558;2022-08-18T12:03:38;99018.16;;;32.35;30.59
7109;BME280;29079;41.930;25.558;2022-08-18T12:06:15;99014.78;;;32.38;30.32
7109;BME280;29079;41.930;25.558;2022-08-18T12:08:51;99008.03;;;32.25;31.03
7109;BME280;29079;41.930;25.558;2022-08-18T12:11:28;99006.75;;;32.18;30.59
7109;BME280;29079;41.930;25.558;2022-08-18T12:14:03;99005.41;;;32.39;30.15
7109;BME280;29079;41.930;25.558;2022-08-18T12:16:57;99008.28;;;32.53;30.22
7109;BME280;29079;41.930;25.558;2022-08-18T12:19:48;99014.38;;;32.26;32.29
7109;BME280;29079;41.930;25.558;2022-08-18T12:22:20;99006.03;;;32.31;30.43
7109;BME280;29079;41.930;25.558;2022-08-18T12:24:52;99007.72;;;32.27;30.78
7109;BME280;29079;41.930;25.558;2022-08-18T12:27:24;99012.16;;;32.28;30.42
7109;BME280;29079;41.930;25.558;2022-08-18T12:30:00;99015.09;;;32.07;31.65
7109;BME280;29079;41.930;25.558;2022-08-18T12:32:33;99002.47;;;32.01;31.04
7109;BME280;29079;41.930;25.558;2022-08-18T12:35:18;99004.19;;;31.92;30.67
7109;BME280;29079;41.930;25.558;2022-08-18T12:37:49;98992.53;;;32.00;29.99
7109;BME280;29079;41.930;25.558;2022-08-18T12:40:40;99011.34;;;31.98;30.38
7109;BME280;29079;41.930;25.558;2022-08-18T12:43:10;98996.22;;;31.90;31.10
7109;BME280;29079;41.930;25.558;2022-08-18T12:45:40;99006.38;;;31.95;30.22
7109;BME280;29079;41.930;25.558;2022-08-18T12:48:12;98999.63;;;31.82;31.72
7109;BME280;29079;41.930;25.558;2022-08-18T12:50:43;99006.25;;;31.81;31.40
7109;BME280;29079;41.930;25.558;2022-08-18T12:53:33;99013.34;;;31.87;31.30
7109;BME280;29079;41.930;25.558;2022-08-18T12:56:24;99009.72;;;31.92;30.97
7109;BME280;29079;41.930;25.558;2022-08-18T12:58:59;99012.22;;;31.59;33.40
7109;BME280;29079;41.930;25.558;2022-08-18T13:01:33;99007.13;;;31.76;31.11
7109;BME280;29079;41.930;25.558;2022-08-18T13:04:06;99000.53;;;31.72;30.42
7109;BME280;29079;41.930;25.558;2022-08-18T13:06:44;99005.84;;;31.93;30.13
7109;BME280;29079;41.930;25.558;2022-08-18T13:09:30;99003.56;;;32.00;29.87
7109;BME280;29079;41.930;25.558;2022-08-18T13:12:22;99004.28;;;31.82;31.47
7109;BME280;29079;41.930;25.558;2022-08-18T13:14:55;98982.41;;;31.61;31.55
7109;BME280;29079;41.930;25.558;2022-08-18T13:17:25;98993.94;;;31.68;31.47
7109;BME280;29079;41.930;25.558;2022-08-18T13:20:05;98998.22;;;31.45;33.49
7109;BME280;29079;41.930;25.558;2022-08-18T13:22:37;98986.41;;;31.45;33.68
7109;BME280;29079;41.930;25.558;2022-08-18T13:25:10;98987.19;;;31.45;32.10
7109;BME280;29079;41.930;25.558;2022-08-18T13:27:59;98995.03;;;31.33;32.94
7109;BME280;29079;41.930;25.558;2022-08-18T13:30:30;98991.63;;;31.46;32.63
7109;BME280;29079;41.930;25.558;2022-08-18T13:33:03;98987.47;;;31.49;32.19
7109;BME280;29079;41.930;25.558;2022-08-18T13:35:54;98997.63;;;31.53;31.49
7109;BME280;29079;41.930;25.558;2022-08-18T13:38:24;98985.75;;;31.53;31.26
7109;BME280;29079;41.930;25.558;2022-08-18T13:40:57;98989.94;;;31.50;31.22
7109;BME280;29079;41.930;25.558;2022-08-18T13:43:30;98986.91;;;31.47;31.74
7109;BME280;29079;41.930;25.558;2022-08-18T13:46:02;98991.16;;;31.73;31.10
7109;BME280;29079;41.930;25.558;2022-08-18T13:48:33;98992.69;;;31.85;31.25
7109;BME280;29079;41.930;25.558;2022-08-18T13:51:05;98985.38;;;31.70;32.27
7109;BME280;29079;41.930;25.558;2022-08-18T13:53:38;98982.00;;;31.78;31.56
7109;BME280;29079;41.930;25.558;2022-08-18T13:56:26;98984.31;;;31.95;29.84
7109;BME280;29079;41.930;25.558;2022-08-18T13:59:00;98988.03;;;32.09;29.37
7109;BME280;29079;41.930;25.558;2022-08-18T14:01:34;98981.59;;;32.19;29.16